createdAt,value
2022-12-18T00:01:18.704Z,98940.03
2022-12-18T00:03:46.930Z,98945.25
2022-12-18T00:06:15.635Z,98946.13
2022-12-18T00:08:43.460Z,98951.44
2022-12-18T00:11:13.387Z,98957.53
2022-12-18T00:13:40.637Z,98956.75
2022-12-18T00:16:10.857Z,98961.88
2022-12-18T00:18:38.025Z,98959.47
2022-12-18T00:21:07.527Z,98964.66
2022-12-18T00:23:35.988Z,98960.22
2022-12-18T00:26:05.702Z,98968.78
2022-12-18T00:28:32.379Z,98962.66
2022-12-18T00:31:03.407Z,98981.50
2022-12-18T00:33:30.171Z,98985.00
2022-12-18T00:36:08.833Z,98984.06
2022-12-18T00:38:35.512Z,98989.16
2022-12-18T00:41:02.779Z,98993.50
2022-12-18T00:43:29.657Z,98995.91
2022-12-18T00:45:56.856Z,98998.25
2022-12-18T00:48:23.609Z,98995.00
2022-12-18T00:50:50.460Z,98999.31
2022-12-18T00:53:17.594Z,98989.47
2022-12-18T00:55:44.672Z,99001.22
2022-12-18T00:58:16.918Z,98996.16
2022-12-18T01:00:44.011Z,98998.88
2022-12-18T01:03:16.924Z,99005.81
2022-12-18T01:05:44.343Z,99008.34
2022-12-18T01:08:11.798Z,99012.59
2022-12-18T01:10:42.292Z,99016.97
2022-12-18T01:13:09.161Z,99016.00
2022-12-18T01:15:35.936Z,99025.63
2022-12-18T01:18:02.615Z,99019.03
2022-12-18T01:20:29.218Z,99019.22
2022-12-18T01:22:55.809Z,99023.66
2022-12-18T01:25:22.482Z,99029.78
2022-12-18T01:27:50.950Z,99033.44
2022-12-18T01:30:17.643Z,99028.22
2022-12-18T01:32:45.685Z,99034.16
2022-12-18T01:35:12.257Z,99029.84
2022-12-18T01:37:38.856Z,99049.72
2022-12-18T01:40:06.223Z,99051.53
2022-12-18T01:42:32.814Z,99057.59
2022-12-18T01:45:04.836Z,99062.88
2022-12-18T01:48:00.506Z,99061.25
2022-12-18T01:50:32.705Z,99063.91
2022-12-18T01:53:04.790Z,99067.34
2022-12-18T01:55:38.306Z,99067.94
2022-12-18T01:58:05.558Z,99071.41
2022-12-18T02:00:33.030Z,99078.25
2022-12-18T02:02:59.763Z,99074.81
2022-12-18T02:05:44.659Z,99079.97
2022-12-18T02:08:21.274Z,99079.97
2022-12-18T02:11:29.053Z,99083.38
2022-12-18T02:14:25.191Z,99082.66
2022-12-18T02:17:03.552Z,99083.44
2022-12-18T02:20:03.874Z,99084.22
2022-12-18T02:22:54.893Z,99091.25
2022-12-18T02:25:30.925Z,99096.41
2022-12-18T02:28:00.393Z,99102.53
2022-12-18T02:30:30.020Z,99097.53
2022-12-18T02:32:58.549Z,99106.06
2022-12-18T02:35:28.620Z,99100.22
2022-12-18T02:37:59.628Z,99096.78
2022-12-18T02:40:31.221Z,99087.44
2022-12-18T02:43:13.957Z,99085.72
2022-12-18T02:45:59.435Z,99091.78
2022-12-18T02:48:34.001Z,99096.97
2022-12-18T02:51:18.481Z,99103.84
2022-12-18T02:53:57.020Z,99103.03
2022-12-18T02:56:33.420Z,99110.69
2022-12-18T02:59:10.515Z,99105.47
2022-12-18T03:01:53.568Z,99114.88
2022-12-18T03:04:30.024Z,99112.34
2022-12-18T03:07:04.449Z,99112.41
2022-12-18T03:09:36.444Z,99123.63
2022-12-18T03:12:23.900Z,99124.47
2022-12-18T03:14:57.514Z,99131.38
2022-12-18T03:17:26.380Z,99134.81
2022-12-18T03:19:57.558Z,99131.44
2022-12-18T03:22:28.239Z,99121.22
2022-12-18T03:24:57.477Z,99113.63
2022-12-18T03:27:27.156Z,99120.50
2022-12-18T03:30:14.288Z,99111.19
2022-12-18T03:32:56.520Z,99119.84
2022-12-18T03:35:34.448Z,99116.41
2022-12-18T03:38:01.415Z,99127.59
2022-12-18T03:40:36.922Z,99125.00
2022-12-18T03:43:17.262Z,99131.84
2022-12-18T03:45:53.480Z,99131.88
2022-12-18T03:48:38.897Z,99131.03
2022-12-18T03:51:54.168Z,99137.00
2022-12-18T03:54:22.395Z,99135.31
2022-12-18T03:57:14.655Z,99143.00
2022-12-18T03:59:43.880Z,99150.72
2022-12-18T04:02:12.279Z,99151.59
2022-12-18T04:04:41.135Z,99149.88
2022-12-18T04:07:08.528Z,99149.03
2022-12-18T04:09:40.828Z,99154.22
2022-12-18T04:12:09.872Z,99153.41
2022-12-18T04:14:36.664Z,99154.31
2022-12-18T04:17:05.572Z,99155.16
2022-12-18T04:19:33.694Z,99153.47
2022-12-18T04:22:02.209Z,99153.47
2022-12-18T04:24:33.841Z,99162.03
2022-12-18T04:27:16.936Z,99165.44
2022-12-18T04:29:48.571Z,99174.84
2022-12-18T04:32:17.287Z,99179.94
2022-12-18T04:34:44.909Z,99185.06
2022-12-18T04:37:12.271Z,99181.66
2022-12-18T04:39:39.328Z,99185.88
2022-12-18T04:42:11.833Z,99189.34
2022-12-18T04:44:38.444Z,99187.63
2022-12-18T04:47:05.066Z,99196.16
2022-12-18T04:49:31.624Z,99193.59
2022-12-18T04:51:58.257Z,99197.88
2022-12-18T04:54:24.876Z,99208.97
2022-12-18T04:56:51.438Z,99210.69
2022-12-18T04:59:18.092Z,99216.69
2022-12-18T05:01:44.771Z,99221.00
2022-12-18T05:04:11.566Z,99216.72
2022-12-18T05:06:38.152Z,99221.00
2022-12-18T05:09:04.815Z,99214.16
2022-12-18T05:11:32.665Z,99219.28
2022-12-18T05:13:59.246Z,99220.13
2022-12-18T05:16:26.063Z,99224.38
2022-12-18T05:18:52.748Z,99225.25
2022-12-18T05:21:19.330Z,99226.97
2022-12-18T05:23:45.942Z,99232.06
2022-12-18T05:26:18.131Z,99238.88
2022-12-18T05:28:45.127Z,99245.72
2022-12-18T05:31:12.273Z,99240.63
2022-12-18T05:33:39.316Z,99243.19
2022-12-18T05:36:08.878Z,99240.59
2022-12-18T05:38:37.515Z,99251.69
2022-12-18T05:41:04.917Z,99248.28
2022-12-18T05:43:31.909Z,99244.00
2022-12-18T05:45:58.546Z,99243.09
2022-12-18T05:48:25.152Z,99259.31
2022-12-18T05:50:51.881Z,99256.81
2022-12-18T05:53:20.578Z,99256.81
2022-12-18T05:55:47.550Z,99251.69
2022-12-18T05:58:15.305Z,99248.28
2022-12-18T06:00:44.609Z,99254.28
2022-12-18T06:03:12.704Z,99263.66
2022-12-18T06:05:41.959Z,99261.97
2022-12-18T06:08:09.614Z,99267.97
2022-12-18T06:10:36.753Z,99268.84
2022-12-18T06:13:03.587Z,99271.41
2022-12-18T06:15:30.151Z,99268.84
2022-12-18T06:17:56.765Z,99275.66
2022-12-18T06:20:24.710Z,99285.06
2022-12-18T06:22:53.281Z,99285.03
2022-12-18T06:25:19.853Z,99302.16
2022-12-18T06:27:48.837Z,99308.13
2022-12-18T06:30:15.452Z,99298.69
2022-12-18T06:32:42.038Z,99312.34
2022-12-18T06:35:08.939Z,99310.63
2022-12-18T06:37:35.620Z,99316.59
2022-12-18T06:40:02.215Z,99312.31
2022-12-18T06:42:29.948Z,99319.13
2022-12-18T06:44:56.538Z,99308.84
2022-12-18T06:47:23.151Z,99312.22
2022-12-18T06:49:49.702Z,99313.06
2022-12-18T06:52:17.487Z,99323.28
2022-12-18T06:54:44.095Z,99330.13
2022-12-18T06:57:10.678Z,99335.22
2022-12-18T06:59:37.274Z,99340.34
2022-12-18T07:02:03.906Z,99340.28
2022-12-18T07:04:30.828Z,99334.28
2022-12-18T07:06:58.275Z,99333.34
2022-12-18T07:09:25.252Z,99333.31
2022-12-18T07:11:52.790Z,99343.56
2022-12-18T07:14:19.437Z,99341.84
2022-12-18T07:16:46.107Z,99339.25
2022-12-18T07:19:12.740Z,99344.38
2022-12-18T07:21:39.375Z,99340.06
2022-12-18T07:24:06.679Z,99352.84
2022-12-18T07:26:33.271Z,99349.38
2022-12-18T07:28:59.934Z,99346.81
2022-12-18T07:31:27.309Z,99358.72
2022-12-18T07:33:54.579Z,99367.19
2022-12-18T07:36:24.351Z,99367.09
2022-12-18T07:38:52.922Z,99364.47
2022-12-18T07:41:20.349Z,99363.56
2022-12-18T07:43:47.358Z,99374.59
2022-12-18T07:46:15.087Z,99378.81
2022-12-18T07:48:43.037Z,99360.88
2022-12-18T07:51:11.368Z,99368.44
2022-12-18T07:53:38.313Z,99376.78
2022-12-18T07:58:55.743Z,99379.25
2022-12-18T08:01:22.546Z,99392.88
2022-12-18T08:03:49.509Z,99395.16
2022-12-18T08:06:18.512Z,99395.09
2022-12-18T08:08:45.155Z,99395.81
2022-12-18T08:11:11.973Z,99392.19
2022-12-18T08:13:38.904Z,99392.09
2022-12-18T08:16:08.079Z,99394.38
2022-12-18T08:18:36.557Z,99394.31
2022-12-18T08:21:14.018Z,99404.72
2022-12-18T08:23:42.966Z,99416.88
2022-12-18T08:26:11.111Z,99418.56
2022-12-18T08:28:37.860Z,99410.84
2022-12-18T08:31:04.958Z,99382.63
2022-12-18T08:33:32.054Z,99389.72
2022-12-18T08:36:02.608Z,99378.31
2022-12-18T08:38:29.540Z,99387.13
2022-12-18T08:41:08.852Z,99394.94
2022-12-18T08:43:53.946Z,99398.47
2022-12-18T08:46:22.305Z,99399.13
2022-12-18T08:48:51.018Z,99404.16
2022-12-18T08:51:18.210Z,99402.78
2022-12-18T08:53:45.496Z,99396.59
2022-12-18T08:56:12.765Z,99390.97
2022-12-18T08:58:39.469Z,99392.06
2022-12-18T09:01:08.430Z,99393.06
2022-12-18T09:03:35.111Z,99405.94
2022-12-18T09:06:02.121Z,99399.47
2022-12-18T09:08:29.168Z,99400.13
2022-12-18T09:10:56.242Z,99396.56
2022-12-18T09:13:23.227Z,99397.81
2022-12-18T09:15:52.368Z,99392.28
2022-12-18T09:18:21.143Z,99399.09
2022-12-18T09:20:48.450Z,99408.25
2022-12-18T09:23:15.503Z,99409.84
2022-12-18T09:25:42.165Z,99409.59
2022-12-18T09:28:14.606Z,99411.41
2022-12-18T09:30:44.304Z,99412.47
2022-12-18T09:33:11.300Z,99414.88
2022-12-18T09:35:40.391Z,99417.97
2022-12-18T09:38:07.449Z,99421.13
2022-12-18T09:40:37.676Z,99418.47
2022-12-18T09:43:05.959Z,99413.72
2022-12-18T09:45:43.562Z,99407.19
2022-12-18T09:48:28.449Z,99403.16
2022-12-18T09:51:01.766Z,99392.50
2022-12-18T09:53:35.448Z,99397.41
2022-12-18T09:56:04.988Z,99398.72
2022-12-18T09:58:35.798Z,99395.94
2022-12-18T10:01:02.665Z,99396.66
2022-12-18T10:03:29.299Z,99397.13
2022-12-18T10:06:14.836Z,99400.88
2022-12-18T10:08:54.395Z,99391.06
2022-12-18T10:11:53.241Z,99392.22
2022-12-18T10:14:47.908Z,99390.56
2022-12-18T10:17:20.692Z,99395.16
2022-12-18T10:19:54.668Z,99391.34
2022-12-18T10:23:02.650Z,99389.91
2022-12-18T10:25:44.203Z,99401.91
2022-12-18T10:28:16.174Z,99400.69
2022-12-18T10:30:44.034Z,99406.81
2022-12-18T10:33:25.924Z,99399.28
2022-12-18T10:35:52.761Z,99393.63
2022-12-18T10:38:20.118Z,99391.09
2022-12-18T10:40:54.242Z,99394.69
2022-12-18T10:43:31.327Z,99399.44
2022-12-18T10:46:10.180Z,99399.56
2022-12-18T10:48:40.236Z,99396.13
2022-12-18T10:51:12.149Z,99392.16
2022-12-18T10:53:42.939Z,99389.91
2022-12-18T10:56:09.892Z,99379.06
2022-12-18T10:58:39.457Z,99379.50
2022-12-18T11:01:06.312Z,99382.72
2022-12-18T11:03:41.422Z,99383.78
2022-12-18T11:06:12.521Z,99385.13
2022-12-18T11:08:40.228Z,99386.09
2022-12-18T11:11:21.866Z,99394.59
2022-12-18T11:14:01.535Z,99394.66
2022-12-18T11:16:31.894Z,99400.25
2022-12-18T11:19:23.608Z,99391.44
2022-12-18T11:21:50.243Z,99388.31
2022-12-18T11:24:35.412Z,99388.75
2022-12-18T11:27:05.470Z,99390.34
2022-12-18T11:29:46.213Z,99384.03
2022-12-18T11:32:16.282Z,99382.28
2022-12-18T11:34:55.955Z,99373.56
2022-12-18T11:37:26.636Z,99373.69
2022-12-18T11:40:02.766Z,99366.22
2022-12-18T11:42:55.812Z,99366.97
2022-12-18T11:45:32.534Z,99362.88
2022-12-18T11:48:04.781Z,99362.00
2022-12-18T11:50:37.681Z,99363.00
2022-12-18T11:53:06.237Z,99367.38
2022-12-18T11:55:57.798Z,99349.03
2022-12-18T11:59:00.633Z,99364.81
2022-12-18T12:01:43.400Z,99371.81
2022-12-18T12:04:23.157Z,99351.81
2022-12-18T12:06:52.405Z,99357.75
2022-12-18T12:09:30.332Z,99360.63
2022-12-18T12:12:29.586Z,99356.09
2022-12-18T12:15:14.093Z,99367.72
2022-12-18T12:17:43.445Z,99358.97
2022-12-18T12:20:15.910Z,99364.06
2022-12-18T12:23:08.926Z,99362.94
2022-12-18T12:25:47.990Z,99361.31
2022-12-18T12:28:47.071Z,99372.84
2022-12-18T12:31:50.573Z,99366.97
2022-12-18T12:34:43.242Z,99363.56
2022-12-18T12:37:21.899Z,99368.72
2022-12-18T12:39:49.140Z,99367.03
2022-12-18T12:42:55.233Z,99364.44
2022-12-18T12:45:29.319Z,99367.34
2022-12-18T12:47:58.774Z,99364.63
2022-12-18T12:50:26.470Z,99354.31
2022-12-18T12:52:56.663Z,99365.56
2022-12-18T12:55:26.284Z,99362.84
2022-12-18T12:57:53.846Z,99367.72
2022-12-18T13:00:20.953Z,99365.91
2022-12-18T13:03:06.770Z,99367.56
2022-12-18T13:05:55.764Z,99365.09
2022-12-18T13:08:33.915Z,99366.97
2022-12-18T13:11:21.102Z,99362.63
2022-12-18T13:13:53.548Z,99355.66
2022-12-18T13:16:24.571Z,99366.06
2022-12-18T13:18:53.488Z,99364.50
2022-12-18T13:21:29.388Z,99373.13
2022-12-18T13:23:58.300Z,99374.69
2022-12-18T13:26:28.865Z,99368.56
2022-12-18T13:28:57.267Z,99377.81
2022-12-18T13:31:42.564Z,99389.22
2022-12-18T13:34:41.758Z,99387.75
2022-12-18T13:37:32.983Z,99390.47
2022-12-18T13:39:59.645Z,99400.09
2022-12-18T13:42:58.668Z,99398.41
2022-12-18T13:45:41.156Z,99395.66
2022-12-18T13:48:17.284Z,99388.69
2022-12-18T13:50:44.398Z,99391.38
2022-12-18T13:53:34.989Z,99393.03
2022-12-18T13:56:03.656Z,99398.19
2022-12-18T13:58:30.580Z,99400.56
2022-12-18T14:01:00.070Z,99394.69
2022-12-18T14:03:29.475Z,99401.69
2022-12-18T14:06:02.206Z,99394.88
2022-12-18T14:08:35.903Z,99405.19
2022-12-18T14:11:05.247Z,99404.34
2022-12-18T14:13:36.521Z,99405.41
2022-12-18T14:16:05.875Z,99389.78
2022-12-18T14:18:45.006Z,99396.66
2022-12-18T14:21:21.959Z,99405.41
2022-12-18T14:23:49.119Z,99408.78
2022-12-18T14:26:33.182Z,99409.22
2022-12-18T14:29:02.738Z,99409.50
2022-12-18T14:31:31.780Z,99413.03
2022-12-18T14:33:58.505Z,99417.28
2022-12-18T14:36:28.426Z,99414.78
2022-12-18T14:38:59.547Z,99407.31
2022-12-18T14:41:29.655Z,99407.25
2022-12-18T14:44:05.939Z,99411.56
2022-12-18T14:46:37.856Z,99418.28
2022-12-18T14:49:18.879Z,99424.19
2022-12-18T14:52:06.736Z,99419.69
2022-12-18T14:54:38.188Z,99418.13
2022-12-18T14:57:25.855Z,99424.25
2022-12-18T14:59:52.590Z,99420.81
2022-12-18T15:02:28.937Z,99421.72
2022-12-18T15:05:12.697Z,99426.69
2022-12-18T15:07:44.488Z,99422.50
2022-12-18T15:10:26.077Z,99422.59
2022-12-18T15:13:00.694Z,99435.50
2022-12-18T15:15:39.270Z,99439.59
2022-12-18T15:18:11.975Z,99440.50
2022-12-18T15:21:09.313Z,99439.59
2022-12-18T15:23:46.298Z,99436.28
2022-12-18T15:26:15.613Z,99436.25
2022-12-18T15:28:52.352Z,99439.72
2022-12-18T15:31:29.232Z,99443.06
2022-12-18T15:33:55.843Z,99448.28
2022-12-18T15:36:26.879Z,99446.59
2022-12-18T15:38:56.132Z,99452.59
2022-12-18T15:41:34.521Z,99453.47
2022-12-18T15:44:03.835Z,99454.22
2022-12-18T15:46:31.909Z,99457.69
2022-12-18T15:49:02.239Z,99454.28
2022-12-18T15:51:37.641Z,99460.28
2022-12-18T15:54:06.885Z,99460.28
2022-12-18T15:56:52.032Z,99465.28
2022-12-18T15:59:20.605Z,99451.53
2022-12-18T16:01:49.738Z,99464.44
2022-12-18T16:04:21.054Z,99474.91
2022-12-18T16:07:13.891Z,99471.44
2022-12-18T16:09:35.189Z,99472.28
2022-12-18T16:12:01.841Z,99475.69
2022-12-18T16:14:32.413Z,99483.44
2022-12-18T16:17:01.472Z,99489.44
2022-12-18T16:19:28.871Z,99491.91
2022-12-18T16:21:57.723Z,99488.53
2022-12-18T16:24:29.715Z,99485.34
2022-12-18T16:27:01.447Z,99499.91
2022-12-18T16:29:29.981Z,99491.31
2022-12-18T16:32:01.726Z,99493.03
2022-12-18T16:34:32.903Z,99498.22
2022-12-18T16:37:05.876Z,99485.31
2022-12-18T16:39:37.205Z,99489.63
2022-12-18T16:42:13.671Z,99480.09
2022-12-18T16:44:40.728Z,99486.16
2022-12-18T16:47:09.258Z,99480.16
2022-12-18T16:49:37.858Z,99474.13
2022-12-18T16:52:11.256Z,99475.81
2022-12-18T16:54:39.472Z,99480.06
2022-12-18T16:57:07.126Z,99479.31
2022-12-18T16:59:35.094Z,99484.34
2022-12-18T17:02:13.292Z,99483.44
2022-12-18T17:04:40.213Z,99486.13
2022-12-18T17:07:06.884Z,99488.75
2022-12-18T17:09:34.901Z,99484.47
2022-12-18T17:12:04.541Z,99476.69
2022-12-18T17:14:33.062Z,99474.13
2022-12-18T17:17:20.343Z,99469.75
2022-12-18T17:19:47.275Z,99483.47
2022-12-18T17:22:14.474Z,99481.00
2022-12-18T17:24:42.243Z,99485.31
2022-12-18T17:27:09.001Z,99487.78
2022-12-18T17:29:41.125Z,99498.06
2022-12-18T17:32:12.324Z,99501.53
2022-12-18T17:34:41.865Z,99488.75
2022-12-18T17:37:12.086Z,99490.38
2022-12-18T17:39:41.572Z,99488.59
2022-12-18T17:42:11.466Z,99492.16
2022-12-18T17:44:42.539Z,99502.50
2022-12-18T17:47:14.789Z,99499.84
2022-12-18T17:49:42.802Z,99506.63
2022-12-18T17:52:10.786Z,99499.75
2022-12-18T17:54:40.134Z,99511.09
2022-12-18T17:57:07.913Z,99503.31
2022-12-18T17:59:34.609Z,99510.13
2022-12-18T18:02:01.436Z,99515.44
2022-12-18T18:04:28.233Z,99513.63
2022-12-18T18:06:54.872Z,99511.94
2022-12-18T18:09:21.493Z,99518.84
2022-12-18T18:12:06.688Z,99520.59
2022-12-18T18:14:33.554Z,99523.22
2022-12-18T18:17:04.870Z,99516.34
2022-12-18T18:19:32.953Z,99527.50
2022-12-18T18:21:59.696Z,99530.03
2022-12-18T18:24:27.685Z,99529.22
2022-12-18T18:26:55.655Z,99530.09
2022-12-18T18:29:26.679Z,99525.75
2022-12-18T18:31:54.681Z,99525.81
2022-12-18T18:34:28.063Z,99523.22
2022-12-18T18:36:54.633Z,99521.53
2022-12-18T18:39:21.339Z,99527.50
2022-12-18T18:41:48.812Z,99528.34
2022-12-18T18:44:20.479Z,99529.91
2022-12-18T18:46:49.559Z,99528.19
2022-12-18T18:49:21.068Z,99521.44
2022-12-18T18:51:50.620Z,99525.69
2022-12-18T18:54:17.203Z,99524.00
2022-12-18T18:59:31.503Z,99533.25
2022-12-18T19:02:00.600Z,99532.47
2022-12-18T19:04:31.823Z,99530.78
2022-12-18T19:06:58.394Z,99529.91
2022-12-18T19:09:26.163Z,99530.78
2022-12-18T19:12:11.845Z,99526.53
2022-12-18T19:14:38.566Z,99527.31
2022-12-18T19:17:05.149Z,99527.13
2022-12-18T19:19:32.610Z,99528.91
2022-12-18T19:21:59.193Z,99531.50
2022-12-18T19:24:25.908Z,99542.75
2022-12-18T19:26:56.840Z,99552.16
2022-12-18T19:29:25.170Z,99547.84
2022-12-18T19:31:51.878Z,99538.50
2022-12-18T19:34:18.530Z,99537.63
2022-12-18T19:36:46.499Z,99537.56
2022-12-18T19:39:16.628Z,99537.63
2022-12-18T19:41:44.264Z,99538.53
2022-12-18T19:44:13.005Z,99543.63
2022-12-18T19:46:41.965Z,99549.59
2022-12-18T19:49:38.442Z,99544.47
2022-12-18T19:51:59.175Z,99547.94
2022-12-18T19:54:25.961Z,99545.31
2022-12-18T19:56:53.404Z,99545.34
2022-12-18T19:59:19.990Z,99553.19
2022-12-18T20:01:46.776Z,99544.56
2022-12-18T20:04:13.636Z,99546.31
2022-12-18T20:06:49.251Z,99544.50
2022-12-18T20:09:16.559Z,99540.25
2022-12-18T20:11:43.600Z,99548.81
2022-12-18T20:14:11.850Z,99550.47
2022-12-18T20:16:38.734Z,99555.63
2022-12-18T20:19:06.363Z,99561.53
2022-12-18T20:21:33.557Z,99562.47
2022-12-18T20:24:01.309Z,99565.09
2022-12-18T20:26:28.511Z,99567.50
2022-12-18T20:28:55.383Z,99559.84
2022-12-18T20:31:22.895Z,99562.34
2022-12-18T20:33:50.966Z,99551.28
2022-12-18T20:36:21.257Z,99556.44
2022-12-18T20:38:54.657Z,99552.19
2022-12-18T20:41:24.287Z,99544.47
2022-12-18T20:43:51.640Z,99543.63
2022-12-18T20:46:18.416Z,99536.69
2022-12-18T20:48:45.833Z,99540.94
2022-12-18T20:51:15.400Z,99546.13
2022-12-18T20:53:42.804Z,99548.69
2022-12-18T20:56:30.691Z,99543.53
2022-12-18T20:58:58.665Z,99548.72
2022-12-18T21:01:26.213Z,99548.69
2022-12-18T21:03:53.806Z,99553.84
2022-12-18T21:06:21.921Z,99548.72
2022-12-18T21:08:49.373Z,99545.38
2022-12-18T21:11:44.197Z,99549.56
2022-12-18T21:14:19.998Z,99555.72
2022-12-18T21:16:47.601Z,99554.75
2022-12-18T21:19:17.056Z,99557.31
2022-12-18T21:21:44.753Z,99558.16
2022-12-18T21:24:12.254Z,99553.06
2022-12-18T21:26:45.432Z,99553.06
2022-12-18T21:29:19.243Z,99547.88
2022-12-18T21:31:46.472Z,99546.16
2022-12-18T21:34:27.680Z,99540.94
2022-12-18T21:36:56.184Z,99539.19
2022-12-18T21:39:24.856Z,99537.38
2022-12-18T21:42:10.586Z,99547.72
2022-12-18T21:44:42.333Z,99542.72
2022-12-18T21:47:17.577Z,99549.59
2022-12-18T21:49:51.180Z,99543.53
2022-12-18T21:52:17.803Z,99541.84
2022-12-18T21:54:44.378Z,99546.13
2022-12-18T21:57:13.341Z,99550.31
2022-12-18T21:59:42.308Z,99545.28
2022-12-18T22:02:12.128Z,99549.56
2022-12-18T22:04:38.943Z,99546.06
2022-12-18T22:07:06.194Z,99545.28
2022-12-18T22:09:32.810Z,99542.69
2022-12-18T22:11:59.600Z,99540.13
2022-12-18T22:14:26.822Z,99543.50
2022-12-18T22:16:53.724Z,99531.53
2022-12-18T22:19:21.665Z,99544.31
2022-12-18T22:21:49.321Z,99535.69
2022-12-18T22:24:24.829Z,99533.16
2022-12-18T22:26:54.291Z,99530.69
2022-12-18T22:29:46.790Z,99521.22
2022-12-18T22:32:16.915Z,99535.00
2022-12-18T22:34:48.131Z,99532.47
2022-12-18T22:37:14.742Z,99534.16
2022-12-18T22:39:41.301Z,99528.97
2022-12-18T22:42:08.797Z,99528.16
2022-12-18T22:44:35.399Z,99525.59
2022-12-18T22:47:05.950Z,99528.91
2022-12-18T22:49:35.686Z,99527.22
2022-12-18T22:52:09.289Z,99532.38
2022-12-18T22:54:36.203Z,99539.22
2022-12-18T22:57:02.778Z,99540.91
2022-12-18T22:59:29.883Z,99539.16
2022-12-18T23:01:59.227Z,99541.78
2022-12-18T23:04:33.448Z,99528.00
2022-12-18T23:07:05.188Z,99527.81
2022-12-18T23:09:32.534Z,99528.75
2022-12-18T23:11:59.263Z,99529.59
2022-12-18T23:14:25.956Z,99528.00
2022-12-18T23:16:53.215Z,99532.31
2022-12-18T23:19:20.749Z,99528.88
2022-12-18T23:21:47.701Z,99526.31
2022-12-18T23:24:14.572Z,99531.53
2022-12-18T23:26:41.368Z,99527.22
2022-12-18T23:29:08.199Z,99520.31
2022-12-18T23:31:38.412Z,99518.63
2022-12-18T23:34:06.293Z,99525.53
2022-12-18T23:36:46.068Z,99517.84
2022-12-18T23:39:22.383Z,99519.53
2022-12-18T23:41:59.157Z,99510.00
2022-12-18T23:44:25.889Z,99510.69
2022-12-18T23:46:52.811Z,99510.00
2022-12-18T23:49:19.498Z,99515.22
2022-12-18T23:51:46.072Z,99511.84
2022-12-18T23:54:12.642Z,99506.75
2022-12-18T23:56:39.230Z,99503.41
2022-12-18T23:59:05.805Z,99506.78
